<?xml version="1.0" encoding="UTF-8"?><gpx xmlns="http://www.topografix.com/GPX/1/1" version="1.1" creator="iOrient"><trk><name>-- Тест отметки треком Щелчок</name><trkseg><trkpt lat="56.2726833" lon="43.9925883"><time>2026-07-24T15:10:17.440</time></trkpt><trkpt lat="56.2728583" lon="43.9930633"><time>2026-07-24T15:10:23.457</time></trkpt><trkpt lat="56.2727783" lon="43.9929400"><time>2026-07-24T15:10:24.420</time></trkpt><trkpt lat="56.2726867" lon="43.9929800"><time>2026-07-24T15:10:26.493</time></trkpt><trkpt lat="56.2726633" lon="43.9930700"><time>2026-07-24T15:10:28.437</time></trkpt><trkpt lat="56.2726133" lon="43.9931383"><time>2026-07-24T15:10:30.443</time></trkpt><trkpt lat="56.2725717" lon="43.9931883"><time>2026-07-24T15:10:32.477</time></trkpt><trkpt lat="56.2725767" lon="43.9927667"><time>2026-07-24T15:10:47.497</time></trkpt><trkpt lat="56.2724517" lon="43.9933867"><time>2026-07-24T15:10:59.597</time></trkpt><trkpt lat="56.2730167" lon="43.9930167"><time>2026-07-24T15:11:12.600</time></trkpt><trkpt lat="56.2724433" lon="43.9938433"><time>2026-07-24T15:11:24.607</time></trkpt><trkpt lat="56.2729550" lon="43.9939917"><time>2026-07-24T15:11:38.640</time></trkpt><trkpt lat="56.2731317" lon="44.0010367"><time>2026-07-24T15:15:02.680</time></trkpt><trkpt lat="56.2700550" lon="43.9973567"><time>2026-07-24T15:15:03.627</time></trkpt><trkpt lat="56.2702617" lon="43.9972300"><time>2026-07-24T15:15:10.607</time></trkpt><trkpt lat="56.2701933" lon="43.9972350"><time>2026-07-24T15:15:13.600</time></trkpt><trkpt lat="56.2701150" lon="43.9972617"><time>2026-07-24T15:15:16.613</time></trkpt><trkpt lat="56.2700683" lon="43.9972367"><time>2026-07-24T15:15:41.423</time></trkpt><trkpt lat="56.2701100" lon="43.9972867"><time>2026-07-24T15:15:48.437</time></trkpt><trkpt lat="56.2701167" lon="43.9971783"><time>2026-07-24T15:15:51.447</time></trkpt><trkpt lat="56.2701050" lon="43.9970867"><time>2026-07-24T15:15:53.447</time></trkpt><trkpt lat="56.2701050" lon="43.9969933"><time>2026-07-24T15:15:55.453</time></trkpt><trkpt lat="56.2700983" lon="43.9968650"><time>2026-07-24T15:15:58.470</time></trkpt><trkpt lat="56.2701067" lon="43.9967183"><time>2026-07-24T15:16:09.457</time></trkpt><trkpt lat="56.2700800" lon="43.9966467"><time>2026-07-24T15:16:12.433</time></trkpt><trkpt lat="56.2700017" lon="43.9960783"><time>2026-07-24T15:16:13.480</time></trkpt><trkpt lat="56.2700517" lon="43.9965767"><time>2026-07-24T15:16:20.497</time></trkpt><trkpt lat="56.2699833" lon="43.9959467"><time>2026-07-24T15:16:26.483</time></trkpt><trkpt lat="56.2698700" lon="43.9959917"><time>2026-07-24T15:16:32.447</time></trkpt><trkpt lat="56.2698650" lon="43.9957567"><time>2026-07-24T15:16:33.437</time></trkpt><trkpt lat="56.2698033" lon="43.9955750"><time>2026-07-24T15:16:35.437</time></trkpt><trkpt lat="56.2698767" lon="43.9954717"><time>2026-07-24T15:16:36.440</time></trkpt><trkpt lat="56.2699717" lon="43.9953867"><time>2026-07-24T15:16:37.440</time></trkpt><trkpt lat="56.2699833" lon="43.9952817"><time>2026-07-24T15:16:38.437</time></trkpt><trkpt lat="56.2699650" lon="43.9951717"><time>2026-07-24T15:16:40.527</time></trkpt><trkpt lat="56.2699200" lon="43.9950967"><time>2026-07-24T15:16:42.440</time></trkpt><trkpt lat="56.2698450" lon="43.9950733"><time>2026-07-24T15:16:44.427</time></trkpt><trkpt lat="56.2697767" lon="43.9950550"><time>2026-07-24T15:16:46.513</time></trkpt><trkpt lat="56.2697133" lon="43.9950567"><time>2026-07-24T15:16:48.443</time></trkpt><trkpt lat="56.2696767" lon="43.9951183"><time>2026-07-24T15:17:13.390</time></trkpt><trkpt lat="56.2697333" lon="43.9952033"><time>2026-07-24T15:17:15.377</time></trkpt><trkpt lat="56.2697900" lon="43.9951850"><time>2026-07-24T15:17:17.387</time></trkpt><trkpt lat="56.2698467" lon="43.9951667"><time>2026-07-24T15:17:19.397</time></trkpt><trkpt lat="56.2698050" lon="43.9952433"><time>2026-07-24T15:17:23.410</time></trkpt><trkpt lat="56.2697317" lon="43.9951800"><time>2026-07-24T15:17:25.390</time></trkpt><trkpt lat="56.2697817" lon="43.9951583"><time>2026-07-24T15:18:26.427</time></trkpt><trkpt lat="56.2698250" lon="43.9951250"><time>2026-07-24T15:18:29.437</time></trkpt><trkpt lat="56.2698650" lon="43.9950500"><time>2026-07-24T15:18:32.437</time></trkpt><trkpt lat="56.2699067" lon="43.9949867"><time>2026-07-24T15:18:36.427</time></trkpt><trkpt lat="56.2699600" lon="43.9949617"><time>2026-07-24T15:18:39.507</time></trkpt><trkpt lat="56.2700117" lon="43.9949700"><time>2026-07-24T15:18:43.443</time></trkpt><trkpt lat="56.2700483" lon="43.9950300"><time>2026-07-24T15:18:49.450</time></trkpt><trkpt lat="56.2700850" lon="43.9950867"><time>2026-07-24T15:18:53.447</time></trkpt><trkpt lat="56.2700617" lon="43.9951683"><time>2026-07-24T15:18:59.450</time></trkpt><trkpt lat="56.2700133" lon="43.9951717"><time>2026-07-24T15:19:03.520</time></trkpt><trkpt lat="56.2699683" lon="43.9951483"><time>2026-07-24T15:19:29.443</time></trkpt><trkpt lat="56.2699067" lon="43.9951450"><time>2026-07-24T15:19:37.417</time></trkpt><trkpt lat="56.2698983" lon="43.9950450"><time>2026-07-24T15:19:44.423</time></trkpt><trkpt lat="56.2699767" lon="43.9950233"><time>2026-07-24T15:19:47.397</time></trkpt><trkpt lat="56.2700450" lon="43.9949917"><time>2026-07-24T15:19:49.380</time></trkpt><trkpt lat="56.2700283" lon="43.9950767"><time>2026-07-24T15:20:00.380</time></trkpt><trkpt lat="56.2699983" lon="43.9951533"><time>2026-07-24T15:20:05.387</time></trkpt><trkpt lat="56.2699667" lon="43.9950800"><time>2026-07-24T15:20:20.447</time></trkpt><trkpt lat="56.2699933" lon="43.9951550"><time>2026-07-24T15:20:43.383</time></trkpt><trkpt lat="56.2700283" lon="43.9950833"><time>2026-07-24T15:20:51.443</time></trkpt><trkpt lat="56.2700283" lon="43.9950000"><time>2026-07-24T15:21:13.417</time></trkpt><trkpt lat="56.2699800" lon="43.9949833"><time>2026-07-24T15:21:20.430</time></trkpt><trkpt lat="56.2699633" lon="43.9950617"><time>2026-07-24T15:21:28.400</time></trkpt><trkpt lat="56.2699950" lon="43.9949933"><time>2026-07-24T15:21:36.420</time></trkpt><trkpt lat="56.2700583" lon="43.9949817"><time>2026-07-24T15:21:45.383</time></trkpt><trkpt lat="56.2700383" lon="43.9950683"><time>2026-07-24T15:21:51.410</time></trkpt><trkpt lat="56.2700383" lon="43.9951567"><time>2026-07-24T15:22:00.410</time></trkpt><trkpt lat="56.2699933" lon="43.9951850"><time>2026-07-24T15:22:03.413</time></trkpt><trkpt lat="56.2699483" lon="43.9951950"><time>2026-07-24T15:22:07.423</time></trkpt><trkpt lat="56.2699950" lon="43.9952867"><time>2026-07-24T15:22:14.423</time></trkpt><trkpt lat="56.2699833" lon="43.9952083"><time>2026-07-24T15:22:21.430</time></trkpt><trkpt lat="56.2699183" lon="43.9951567"><time>2026-07-24T15:22:35.413</time></trkpt><trkpt lat="56.2698783" lon="43.9951017"><time>2026-07-24T15:22:37.430</time></trkpt><trkpt lat="56.2699167" lon="43.9951667"><time>2026-07-24T15:22:47.397</time></trkpt><trkpt lat="56.2699867" lon="43.9951950"><time>2026-07-24T15:23:10.413</time></trkpt><trkpt lat="56.2700400" lon="43.9951667"><time>2026-07-24T15:23:46.403</time></trkpt><trkpt lat="56.2699750" lon="43.9950933"><time>2026-07-24T15:24:27.443</time></trkpt><trkpt lat="56.2699350" lon="43.9951383"><time>2026-07-24T15:24:33.433</time></trkpt><trkpt lat="56.2699400" lon="43.9950550"><time>2026-07-24T15:24:52.420</time></trkpt><trkpt lat="56.2699783" lon="43.9951117"><time>2026-07-24T15:25:11.437</time></trkpt><trkpt lat="56.2699650" lon="43.9952017"><time>2026-07-24T15:25:21.427</time></trkpt><trkpt lat="56.2700000" lon="43.9951500"><time>2026-07-24T15:25:27.437</time></trkpt><trkpt lat="56.2700567" lon="43.9951383"><time>2026-07-24T15:25:35.437</time></trkpt><trkpt lat="56.2701050" lon="43.9951383"><time>2026-07-24T15:25:38.427</time></trkpt><trkpt lat="56.2701650" lon="43.9951183"><time>2026-07-24T15:25:40.497</time></trkpt><trkpt lat="56.2702233" lon="43.9951133"><time>2026-07-24T15:25:41.437</time></trkpt><trkpt lat="56.2703033" lon="43.9951000"><time>2026-07-24T15:25:43.440</time></trkpt><trkpt lat="56.2703833" lon="43.9950783"><time>2026-07-24T15:25:45.433</time></trkpt><trkpt lat="56.2704250" lon="43.9950433"><time>2026-07-24T15:25:46.557</time></trkpt><trkpt lat="56.2704367" lon="43.9951933"><time>2026-07-24T15:26:00.537</time></trkpt><trkpt lat="56.2705117" lon="43.9950467"><time>2026-07-24T15:26:03.430</time></trkpt><trkpt lat="56.2705500" lon="43.9949150"><time>2026-07-24T15:26:04.430</time></trkpt><trkpt lat="56.2705717" lon="43.9950100"><time>2026-07-24T15:26:06.437</time></trkpt><trkpt lat="56.2706417" lon="43.9949817"><time>2026-07-24T15:26:08.437</time></trkpt><trkpt lat="56.2707017" lon="43.9948983"><time>2026-07-24T15:26:10.437</time></trkpt><trkpt lat="56.2707733" lon="43.9948750"><time>2026-07-24T15:26:12.433</time></trkpt><trkpt lat="56.2708400" lon="43.9948217"><time>2026-07-24T15:26:14.457</time></trkpt><trkpt lat="56.2709417" lon="43.9950217"><time>2026-07-24T15:26:28.433</time></trkpt><trkpt lat="56.2710567" lon="43.9949833"><time>2026-07-24T15:26:29.410</time></trkpt><trkpt lat="56.2711533" lon="43.9949733"><time>2026-07-24T15:26:30.433</time></trkpt><trkpt lat="56.2712250" lon="43.9949367"><time>2026-07-24T15:26:31.510</time></trkpt><trkpt lat="56.2713000" lon="43.9948933"><time>2026-07-24T15:26:32.437</time></trkpt><trkpt lat="56.2713633" lon="43.9948433"><time>2026-07-24T15:26:33.430</time></trkpt><trkpt lat="56.2714283" lon="43.9948167"><time>2026-07-24T15:26:34.433</time></trkpt><trkpt lat="56.2714883" lon="43.9947650"><time>2026-07-24T15:26:36.437</time></trkpt><trkpt lat="56.2715250" lon="43.9947067"><time>2026-07-24T15:26:37.487</time></trkpt><trkpt lat="56.2715700" lon="43.9946733"><time>2026-07-24T15:26:38.467</time></trkpt><trkpt lat="56.2716433" lon="43.9950117"><time>2026-07-24T15:26:51.467</time></trkpt><trkpt lat="56.2699850" lon="43.9962817"><time>2026-07-24T15:27:15.483</time></trkpt><trkpt lat="56.2717517" lon="43.9951317"><time>2026-07-24T15:27:24.487</time></trkpt><trkpt lat="56.2721133" lon="43.9952933"><time>2026-07-24T15:27:29.457</time></trkpt><trkpt lat="56.2721817" lon="43.9952533"><time>2026-07-24T15:27:30.433</time></trkpt><trkpt lat="56.2722933" lon="43.9952717"><time>2026-07-24T15:27:32.420</time></trkpt><trkpt lat="56.2723400" lon="43.9952583"><time>2026-07-24T15:27:35.377</time></trkpt><trkpt lat="56.2723000" lon="43.9952167"><time>2026-07-24T15:27:57.410</time></trkpt><trkpt lat="56.2723400" lon="43.9951783"><time>2026-07-24T15:28:16.450</time></trkpt><trkpt lat="56.2723400" lon="43.9951783"><time>2026-07-24T15:28:17.347</time></trkpt><trkpt lat="56.2723267" lon="43.9951000"><time>2026-07-24T15:28:40.433</time></trkpt><trkpt lat="56.2723567" lon="43.9950050"><time>2026-07-24T15:29:20.410</time></trkpt><trkpt lat="56.2723350" lon="43.9949100"><time>2026-07-24T15:29:30.450</time></trkpt><trkpt lat="56.2723233" lon="43.9948267"><time>2026-07-24T15:29:32.450</time></trkpt><trkpt lat="56.2723050" lon="43.9947483"><time>2026-07-24T15:29:34.440</time></trkpt><trkpt lat="56.2722867" lon="43.9946717"><time>2026-07-24T15:29:36.450</time></trkpt><trkpt lat="56.2722600" lon="43.9945750"><time>2026-07-24T15:29:38.440</time></trkpt><trkpt lat="56.2722650" lon="43.9944500"><time>2026-07-24T15:29:40.440</time></trkpt><trkpt lat="56.2722883" lon="43.9943450"><time>2026-07-24T15:29:42.497</time></trkpt><trkpt lat="56.2723650" lon="43.9942867"><time>2026-07-24T15:29:51.467</time></trkpt><trkpt lat="56.2724133" lon="43.9941633"><time>2026-07-24T15:29:54.427</time></trkpt><trkpt lat="56.2724383" lon="43.9940783"><time>2026-07-24T15:29:56.437</time></trkpt><trkpt lat="56.2724117" lon="43.9940050"><time>2026-07-24T15:29:59.517</time></trkpt><trkpt lat="56.2723717" lon="43.9939667"><time>2026-07-24T15:30:02.437</time></trkpt><trkpt lat="56.2723633" lon="43.9938750"><time>2026-07-24T15:30:08.463</time></trkpt><trkpt lat="56.2723117" lon="43.9938400"><time>2026-07-24T15:30:12.450</time></trkpt><trkpt lat="56.2722767" lon="43.9937750"><time>2026-07-24T15:30:16.440</time></trkpt><trkpt lat="56.2722267" lon="43.9937050"><time>2026-07-24T15:30:19.440</time></trkpt><trkpt lat="56.2721617" lon="43.9935917"><time>2026-07-24T15:30:21.397</time></trkpt><trkpt lat="56.2721233" lon="43.9935450"><time>2026-07-24T15:30:22.517</time></trkpt><trkpt lat="56.2720817" lon="43.9935050"><time>2026-07-24T15:30:23.407</time></trkpt><trkpt lat="56.2720350" lon="43.9934750"><time>2026-07-24T15:30:25.440</time></trkpt><trkpt lat="56.2719917" lon="43.9935017"><time>2026-07-24T15:30:27.440</time></trkpt><trkpt lat="56.2719417" lon="43.9935500"><time>2026-07-24T15:30:29.447</time></trkpt><trkpt lat="56.2718833" lon="43.9935633"><time>2026-07-24T15:30:32.443</time></trkpt><trkpt lat="56.2718250" lon="43.9935550"><time>2026-07-24T15:30:35.447</time></trkpt><trkpt lat="56.2717733" lon="43.9935683"><time>2026-07-24T15:30:38.443</time></trkpt><trkpt lat="56.2717100" lon="43.9935750"><time>2026-07-24T15:30:41.473</time></trkpt><trkpt lat="56.2731983" lon="43.9931650"><time>2026-07-24T15:34:51.480</time></trkpt><trkpt lat="56.2641967" lon="43.9976867"><time>2026-07-24T15:35:14.583</time></trkpt><trkpt lat="56.2713383" lon="44.0013767"><time>2026-07-24T15:35:39.603</time></trkpt><trkpt lat="56.2707250" lon="44.0081233"><time>2026-07-24T15:36:07.567</time></trkpt><trkpt lat="56.2707183" lon="44.0074300"><time>2026-07-24T15:36:08.543</time></trkpt><trkpt lat="56.2712133" lon="44.0040217"><time>2026-07-24T15:36:09.593</time></trkpt><trkpt lat="56.2701750" lon="43.9939250"><time>2026-07-24T15:36:44.630</time></trkpt><trkpt lat="56.2700750" lon="44.0034017"><time>2026-07-24T15:37:13.643</time></trkpt><trkpt lat="56.2684950" lon="44.0026550"><time>2026-07-24T15:37:39.617</time></trkpt><trkpt lat="56.2684517" lon="44.0027483"><time>2026-07-24T15:37:40.570</time></trkpt><trkpt lat="56.2686350" lon="44.0025167"><time>2026-07-24T15:37:41.593</time></trkpt><trkpt lat="56.2693750" lon="44.0019017"><time>2026-07-24T15:37:42.650</time></trkpt><trkpt lat="56.2698600" lon="44.0027600"><time>2026-07-24T15:37:58.633</time></trkpt><trkpt lat="56.2699500" lon="44.0028333"><time>2026-07-24T15:37:59.597</time></trkpt><trkpt lat="56.2700033" lon="44.0029017"><time>2026-07-24T15:38:01.417</time></trkpt><trkpt lat="56.2699483" lon="44.0028083"><time>2026-07-24T15:38:04.413</time></trkpt><trkpt lat="56.2698650" lon="44.0027117"><time>2026-07-24T15:38:05.420</time></trkpt><trkpt lat="56.2698183" lon="44.0026967"><time>2026-07-24T15:38:07.423</time></trkpt><trkpt lat="56.2697950" lon="44.0027850"><time>2026-07-24T15:38:10.417</time></trkpt><trkpt lat="56.2697683" lon="44.0028717"><time>2026-07-24T15:38:13.417</time></trkpt><trkpt lat="56.2697967" lon="44.0029533"><time>2026-07-24T15:38:16.417</time></trkpt><trkpt lat="56.2698283" lon="44.0030417"><time>2026-07-24T15:38:18.507</time></trkpt><trkpt lat="56.2698800" lon="44.0031217"><time>2026-07-24T15:38:20.437</time></trkpt><trkpt lat="56.2698933" lon="44.0045633"><time>2026-07-24T15:38:44.427</time></trkpt><trkpt lat="56.2700917" lon="44.0047183"><time>2026-07-24T15:38:45.397</time></trkpt><trkpt lat="56.2698433" lon="44.0046017"><time>2026-07-24T15:38:46.423</time></trkpt><trkpt lat="56.2699933" lon="44.0047633"><time>2026-07-24T15:38:47.420</time></trkpt><trkpt lat="56.2698817" lon="44.0047467"><time>2026-07-24T15:38:48.503</time></trkpt><trkpt lat="56.2698017" lon="44.0047283"><time>2026-07-24T15:38:49.410</time></trkpt><trkpt lat="56.2697050" lon="44.0047150"><time>2026-07-24T15:38:50.417</time></trkpt><trkpt lat="56.2695717" lon="44.0046733"><time>2026-07-24T15:38:51.417</time></trkpt><trkpt lat="56.2694567" lon="44.0046283"><time>2026-07-24T15:38:52.457</time></trkpt><trkpt lat="56.2696767" lon="44.0064967"><time>2026-07-24T15:39:08.433</time></trkpt><trkpt lat="56.2696700" lon="44.0063600"><time>2026-07-24T15:39:09.473</time></trkpt><trkpt lat="56.2696233" lon="44.0061383"><time>2026-07-24T15:39:10.417</time></trkpt><trkpt lat="56.2695717" lon="44.0061383"><time>2026-07-24T15:39:12.413</time></trkpt><trkpt lat="56.2695233" lon="44.0061283"><time>2026-07-24T15:39:14.407</time></trkpt><trkpt lat="56.2694667" lon="44.0061367"><time>2026-07-24T15:39:17.450</time></trkpt><trkpt lat="56.2704417" lon="44.0055950"><time>2026-07-24T15:39:38.423</time></trkpt><trkpt lat="56.2688883" lon="44.0056617"><time>2026-07-24T15:40:00.407</time></trkpt><trkpt lat="56.2687550" lon="44.0057967"><time>2026-07-24T15:40:13.303</time></trkpt><trkpt lat="56.2687083" lon="44.0058600"><time>2026-07-24T15:40:14.293</time></trkpt><trkpt lat="56.2686583" lon="44.0058900"><time>2026-07-24T15:40:16.363</time></trkpt><trkpt lat="56.2688867" lon="44.0056767"><time>2026-07-24T15:40:19.407</time></trkpt><trkpt lat="56.2689417" lon="44.0057050"><time>2026-07-24T15:40:22.377</time></trkpt><trkpt lat="56.2689933" lon="44.0057417"><time>2026-07-24T15:40:25.430</time></trkpt><trkpt lat="56.2690367" lon="44.0057917"><time>2026-07-24T15:40:30.443</time></trkpt><trkpt lat="56.2690367" lon="44.0057917"><time>2026-07-24T15:40:30.497</time></trkpt><trkpt lat="56.2690100" lon="44.0057117"><time>2026-07-24T15:40:38.447</time></trkpt><trkpt lat="56.2688833" lon="44.0057667"><time>2026-07-24T15:40:45.357</time></trkpt><trkpt lat="56.2688933" lon="44.0058567"><time>2026-07-24T15:40:48.420</time></trkpt><trkpt lat="56.2688800" lon="44.0057783"><time>2026-07-24T15:41:04.380</time></trkpt><trkpt lat="56.2688400" lon="44.0057167"><time>2026-07-24T15:41:08.430</time></trkpt><trkpt lat="56.2688150" lon="44.0056450"><time>2026-07-24T15:41:13.417</time></trkpt><trkpt lat="56.2688750" lon="44.0056717"><time>2026-07-24T15:41:42.417</time></trkpt><trkpt lat="56.2689083" lon="44.0056133"><time>2026-07-24T15:42:04.410</time></trkpt><trkpt lat="56.2688550" lon="44.0055967"><time>2026-07-24T15:42:20.400</time></trkpt><trkpt lat="56.2688800" lon="44.0056883"><time>2026-07-24T15:42:47.407</time></trkpt><trkpt lat="56.2689350" lon="44.0057567"><time>2026-07-24T15:43:19.403</time></trkpt><trkpt lat="56.2688900" lon="44.0057700"><time>2026-07-24T15:43:53.417</time></trkpt><trkpt lat="56.2688417" lon="44.0057467"><time>2026-07-24T15:43:57.447</time></trkpt><trkpt lat="56.2687783" lon="44.0057033"><time>2026-07-24T15:44:00.443</time></trkpt><trkpt lat="56.2687217" lon="44.0056817"><time>2026-07-24T15:44:02.500</time></trkpt><trkpt lat="56.2686700" lon="44.0056517"><time>2026-07-24T15:44:04.440</time></trkpt><trkpt lat="56.2686200" lon="44.0056050"><time>2026-07-24T15:44:07.447</time></trkpt><trkpt lat="56.2685700" lon="44.0055817"><time>2026-07-24T15:44:09.437</time></trkpt><trkpt lat="56.2685183" lon="44.0055717"><time>2026-07-24T15:44:11.437</time></trkpt><trkpt lat="56.2684600" lon="44.0056083"><time>2026-07-24T15:44:13.440</time></trkpt><trkpt lat="56.2683983" lon="44.0056150"><time>2026-07-24T15:44:15.440</time></trkpt><trkpt lat="56.2683533" lon="44.0056467"><time>2026-07-24T15:44:18.443</time></trkpt><trkpt lat="56.2683150" lon="44.0056983"><time>2026-07-24T15:44:22.440</time></trkpt><trkpt lat="56.2683017" lon="44.0056167"><time>2026-07-24T15:44:28.437</time></trkpt><trkpt lat="56.2683133" lon="44.0055217"><time>2026-07-24T15:44:33.437</time></trkpt><trkpt lat="56.2682600" lon="44.0055417"><time>2026-07-24T15:44:51.433</time></trkpt><trkpt lat="56.2682033" lon="44.0054983"><time>2026-07-24T15:44:56.440</time></trkpt><trkpt lat="56.2681417" lon="44.0055183"><time>2026-07-24T15:44:58.437</time></trkpt><trkpt lat="56.2680900" lon="44.0055450"><time>2026-07-24T15:45:02.480</time></trkpt><trkpt lat="56.2680750" lon="44.0054600"><time>2026-07-24T15:45:16.457</time></trkpt><trkpt lat="56.2679367" lon="44.0054617"><time>2026-07-24T15:45:19.417</time></trkpt><trkpt lat="56.2678900" lon="44.0054683"><time>2026-07-24T15:45:20.417</time></trkpt><trkpt lat="56.2678400" lon="44.0055500"><time>2026-07-24T15:45:22.427</time></trkpt><trkpt lat="56.2677833" lon="44.0055900"><time>2026-07-24T15:45:23.423</time></trkpt><trkpt lat="56.2677417" lon="44.0056233"><time>2026-07-24T15:45:24.493</time></trkpt><trkpt lat="56.2677083" lon="44.0056783"><time>2026-07-24T15:45:25.427</time></trkpt><trkpt lat="56.2676483" lon="44.0057517"><time>2026-07-24T15:45:27.430</time></trkpt><trkpt lat="56.2675883" lon="44.0058017"><time>2026-07-24T15:45:29.430</time></trkpt><trkpt lat="56.2675500" lon="44.0058583"><time>2026-07-24T15:45:31.430</time></trkpt><trkpt lat="56.2675000" lon="44.0059067"><time>2026-07-24T15:45:33.427</time></trkpt><trkpt lat="56.2674550" lon="44.0059367"><time>2026-07-24T15:45:34.427</time></trkpt><trkpt lat="56.2674100" lon="44.0059833"><time>2026-07-24T15:45:36.493</time></trkpt><trkpt lat="56.2673650" lon="44.0060283"><time>2026-07-24T15:45:38.427</time></trkpt><trkpt lat="56.2673183" lon="44.0060700"><time>2026-07-24T15:45:40.433</time></trkpt><trkpt lat="56.2672917" lon="44.0061633"><time>2026-07-24T15:45:43.430</time></trkpt><trkpt lat="56.2672500" lon="44.0062217"><time>2026-07-24T15:45:46.387</time></trkpt><trkpt lat="56.2672233" lon="44.0062967"><time>2026-07-24T15:45:49.397</time></trkpt><trkpt lat="56.2672033" lon="44.0063817"><time>2026-07-24T15:45:51.377</time></trkpt><trkpt lat="56.2671317" lon="44.0062850"><time>2026-07-24T15:45:54.403</time></trkpt><trkpt lat="56.2670883" lon="44.0062550"><time>2026-07-24T15:45:58.417</time></trkpt><trkpt lat="56.2670417" lon="44.0062133"><time>2026-07-24T15:46:01.423</time></trkpt><trkpt lat="56.2669900" lon="44.0062033"><time>2026-07-24T15:46:08.447</time></trkpt><trkpt lat="56.2669400" lon="44.0062200"><time>2026-07-24T15:46:15.443</time></trkpt><trkpt lat="56.2668950" lon="44.0062300"><time>2026-07-24T15:46:17.447</time></trkpt><trkpt lat="56.2668367" lon="44.0062567"><time>2026-07-24T15:46:19.447</time></trkpt><trkpt lat="56.2667917" lon="44.0062717"><time>2026-07-24T15:46:21.440</time></trkpt><trkpt lat="56.2667383" lon="44.0063000"><time>2026-07-24T15:46:23.447</time></trkpt><trkpt lat="56.2666950" lon="44.0063517"><time>2026-07-24T15:46:25.447</time></trkpt><trkpt lat="56.2666283" lon="44.0063967"><time>2026-07-24T15:46:28.527</time></trkpt><trkpt lat="56.2665667" lon="44.0064250"><time>2026-07-24T15:46:31.440</time></trkpt><trkpt lat="56.2665217" lon="44.0064417"><time>2026-07-24T15:46:33.447</time></trkpt><trkpt lat="56.2664750" lon="44.0064817"><time>2026-07-24T15:46:35.443</time></trkpt><trkpt lat="56.2664817" lon="44.0063917"><time>2026-07-24T15:46:43.443</time></trkpt><trkpt lat="56.2664750" lon="44.0063117"><time>2026-07-24T15:46:52.390</time></trkpt><trkpt lat="56.2665050" lon="44.0062467"><time>2026-07-24T15:46:57.437</time></trkpt><trkpt lat="56.2664717" lon="44.0061850"><time>2026-07-24T15:47:01.513</time></trkpt><trkpt lat="56.2664517" lon="44.0061117"><time>2026-07-24T15:47:04.483</time></trkpt><trkpt lat="56.2664417" lon="44.0055633"><time>2026-07-24T15:47:25.467</time></trkpt><trkpt lat="56.2664667" lon="44.0054667"><time>2026-07-24T15:47:26.447</time></trkpt><trkpt lat="56.2664833" lon="44.0053050"><time>2026-07-24T15:47:28.467</time></trkpt><trkpt lat="56.2664700" lon="44.0052517"><time>2026-07-24T15:47:44.437</time></trkpt><trkpt lat="56.2664283" lon="44.0042817"><time>2026-07-24T15:47:47.547</time></trkpt><trkpt lat="56.2664283" lon="44.0042817"><time>2026-07-24T15:47:47.587</time></trkpt><trkpt lat="56.2663133" lon="44.0043667"><time>2026-07-24T15:47:48.477</time></trkpt><trkpt lat="56.2663517" lon="44.0057533"><time>2026-07-24T15:48:05.423</time></trkpt><trkpt lat="56.2666133" lon="44.0045767"><time>2026-07-24T15:48:06.407</time></trkpt><trkpt lat="56.2666667" lon="44.0043650"><time>2026-07-24T15:48:07.433</time></trkpt><trkpt lat="56.2666700" lon="44.0042233"><time>2026-07-24T15:48:08.427</time></trkpt><trkpt lat="56.2666000" lon="44.0041350"><time>2026-07-24T15:48:09.420</time></trkpt><trkpt lat="56.2665783" lon="44.0040200"><time>2026-07-24T15:48:10.493</time></trkpt><trkpt lat="56.2665633" lon="44.0039417"><time>2026-07-24T15:48:11.433</time></trkpt><trkpt lat="56.2665533" lon="44.0038517"><time>2026-07-24T15:48:14.427</time></trkpt><trkpt lat="56.2665250" lon="44.0037533"><time>2026-07-24T15:48:18.423</time></trkpt><trkpt lat="56.2665050" lon="44.0036317"><time>2026-07-24T15:48:21.417</time></trkpt><trkpt lat="56.2665017" lon="44.0035350"><time>2026-07-24T15:48:23.427</time></trkpt><trkpt lat="56.2665000" lon="44.0034283"><time>2026-07-24T15:48:26.427</time></trkpt><trkpt lat="56.2665483" lon="44.0033733"><time>2026-07-24T15:48:32.420</time></trkpt><trkpt lat="56.2666017" lon="44.0033500"><time>2026-07-24T15:48:35.430</time></trkpt><trkpt lat="56.2666550" lon="44.0033533"><time>2026-07-24T15:48:38.433</time></trkpt><trkpt lat="56.2667033" lon="44.0033283"><time>2026-07-24T15:48:41.420</time></trkpt><trkpt lat="56.2667433" lon="44.0032900"><time>2026-07-24T15:48:46.480</time></trkpt><trkpt lat="56.2667750" lon="44.0032233"><time>2026-07-24T15:48:52.493</time></trkpt><trkpt lat="56.2668083" lon="44.0031467"><time>2026-07-24T15:48:55.403</time></trkpt><trkpt lat="56.2668400" lon="44.0030700"><time>2026-07-24T15:48:57.413</time></trkpt><trkpt lat="56.2668683" lon="44.0029750"><time>2026-07-24T15:48:59.430</time></trkpt><trkpt lat="56.2668933" lon="44.0029067"><time>2026-07-24T15:49:01.427</time></trkpt><trkpt lat="56.2669283" lon="44.0028217"><time>2026-07-24T15:49:04.493</time></trkpt><trkpt lat="56.2669700" lon="44.0027783"><time>2026-07-24T15:49:07.397</time></trkpt><trkpt lat="56.2670200" lon="44.0027017"><time>2026-07-24T15:49:10.390</time></trkpt><trkpt lat="56.2670700" lon="44.0026650"><time>2026-07-24T15:49:12.397</time></trkpt><trkpt lat="56.2671283" lon="44.0025983"><time>2026-07-24T15:49:14.390</time></trkpt><trkpt lat="56.2671750" lon="44.0025383"><time>2026-07-24T15:49:16.433</time></trkpt><trkpt lat="56.2672283" lon="44.0025033"><time>2026-07-24T15:49:18.437</time></trkpt><trkpt lat="56.2672817" lon="44.0024967"><time>2026-07-24T15:49:20.433</time></trkpt><trkpt lat="56.2673367" lon="44.0024783"><time>2026-07-24T15:49:23.433</time></trkpt><trkpt lat="56.2673850" lon="44.0024783"><time>2026-07-24T15:49:26.440</time></trkpt><trkpt lat="56.2674517" lon="44.0024800"><time>2026-07-24T15:49:29.437</time></trkpt><trkpt lat="56.2675083" lon="44.0024483"><time>2026-07-24T15:49:31.440</time></trkpt><trkpt lat="56.2675717" lon="44.0024083"><time>2026-07-24T15:49:33.443</time></trkpt><trkpt lat="56.2676367" lon="44.0023650"><time>2026-07-24T15:49:36.437</time></trkpt><trkpt lat="56.2676967" lon="44.0023467"><time>2026-07-24T15:49:38.443</time></trkpt><trkpt lat="56.2677750" lon="44.0023367"><time>2026-07-24T15:49:40.440</time></trkpt><trkpt lat="56.2678350" lon="44.0023517"><time>2026-07-24T15:49:42.430</time></trkpt><trkpt lat="56.2678900" lon="44.0023583"><time>2026-07-24T15:49:44.440</time></trkpt><trkpt lat="56.2679533" lon="44.0023833"><time>2026-07-24T15:49:46.440</time></trkpt><trkpt lat="56.2680183" lon="44.0024000"><time>2026-07-24T15:49:48.437</time></trkpt><trkpt lat="56.2680767" lon="44.0024100"><time>2026-07-24T15:49:50.440</time></trkpt><trkpt lat="56.2681267" lon="44.0024367"><time>2026-07-24T15:49:52.443</time></trkpt><trkpt lat="56.2681967" lon="44.0024400"><time>2026-07-24T15:49:54.467</time></trkpt><trkpt lat="56.2682550" lon="44.0024533"><time>2026-07-24T15:50:06.520</time></trkpt><trkpt lat="56.2682967" lon="44.0024050"><time>2026-07-24T15:50:07.430</time></trkpt><trkpt lat="56.2683517" lon="44.0023650"><time>2026-07-24T15:50:08.430</time></trkpt><trkpt lat="56.2684217" lon="44.0023333"><time>2026-07-24T15:50:09.443</time></trkpt><trkpt lat="56.2684683" lon="44.0022950"><time>2026-07-24T15:50:10.437</time></trkpt><trkpt lat="56.2685267" lon="44.0022483"><time>2026-07-24T15:50:11.437</time></trkpt><trkpt lat="56.2685800" lon="44.0021733"><time>2026-07-24T15:50:12.517</time></trkpt><trkpt lat="56.2686783" lon="44.0020783"><time>2026-07-24T15:50:13.430</time></trkpt><trkpt lat="56.2687267" lon="44.0020533"><time>2026-07-24T15:50:14.430</time></trkpt><trkpt lat="56.2687950" lon="44.0020067"><time>2026-07-24T15:50:15.433</time></trkpt><trkpt lat="56.2688817" lon="44.0019717"><time>2026-07-24T15:50:17.443</time></trkpt><trkpt lat="56.2689517" lon="44.0019500"><time>2026-07-24T15:50:19.437</time></trkpt><trkpt lat="56.2690267" lon="44.0019350"><time>2026-07-24T15:50:21.480</time></trkpt><trkpt lat="56.2691233" lon="44.0019150"><time>2026-07-24T15:50:31.457</time></trkpt><trkpt lat="56.2691783" lon="44.0018783"><time>2026-07-24T15:50:32.427</time></trkpt><trkpt lat="56.2692733" lon="44.0018817"><time>2026-07-24T15:50:34.437</time></trkpt><trkpt lat="56.2693300" lon="44.0018583"><time>2026-07-24T15:50:35.507</time></trkpt><trkpt lat="56.2693867" lon="44.0017950"><time>2026-07-24T15:50:36.440</time></trkpt><trkpt lat="56.2694400" lon="44.0017333"><time>2026-07-24T15:50:37.487</time></trkpt><trkpt lat="56.2694733" lon="44.0016117"><time>2026-07-24T15:50:47.507</time></trkpt><trkpt lat="56.2695250" lon="44.0014367"><time>2026-07-24T15:50:48.433</time></trkpt><trkpt lat="56.2695933" lon="44.0012683"><time>2026-07-24T15:50:49.433</time></trkpt><trkpt lat="56.2696250" lon="44.0011417"><time>2026-07-24T15:50:50.427</time></trkpt><trkpt lat="56.2696467" lon="44.0010400"><time>2026-07-24T15:50:51.433</time></trkpt><trkpt lat="56.2697100" lon="44.0008700"><time>2026-07-24T15:50:53.520</time></trkpt><trkpt lat="56.2697683" lon="44.0007667"><time>2026-07-24T15:50:55.447</time></trkpt><trkpt lat="56.2698033" lon="44.0006250"><time>2026-07-24T15:50:57.480</time></trkpt><trkpt lat="56.2700733" lon="44.0002417"><time>2026-07-24T15:51:19.453</time></trkpt><trkpt lat="56.2701217" lon="44.0002217"><time>2026-07-24T15:51:21.440</time></trkpt><trkpt lat="56.2701850" lon="44.0002317"><time>2026-07-24T15:51:25.443</time></trkpt><trkpt lat="56.2702433" lon="44.0002417"><time>2026-07-24T15:51:27.437</time></trkpt><trkpt lat="56.2702883" lon="44.0002667"><time>2026-07-24T15:51:28.523</time></trkpt><trkpt lat="56.2703517" lon="44.0003200"><time>2026-07-24T15:51:30.443</time></trkpt><trkpt lat="56.2704033" lon="44.0003567"><time>2026-07-24T15:51:32.437</time></trkpt><trkpt lat="56.2703867" lon="44.0002650"><time>2026-07-24T15:51:35.447</time></trkpt><trkpt lat="56.2703567" lon="44.0001367"><time>2026-07-24T15:51:37.470</time></trkpt><trkpt lat="56.2706317" lon="43.9996117"><time>2026-07-24T15:51:54.453</time></trkpt><trkpt lat="56.2711367" lon="43.9986933"><time>2026-07-24T15:51:55.463</time></trkpt><trkpt lat="56.2703167" lon="43.9977917"><time>2026-07-24T15:52:17.463</time></trkpt><trkpt lat="56.2700583" lon="43.9967633"><time>2026-07-24T15:52:37.463</time></trkpt><trkpt lat="56.2701500" lon="43.9966967"><time>2026-07-24T15:52:46.447</time></trkpt><trkpt lat="56.2701167" lon="43.9966100"><time>2026-07-24T15:52:47.427</time></trkpt><trkpt lat="56.2701300" lon="43.9965100"><time>2026-07-24T15:52:50.440</time></trkpt><trkpt lat="56.2700933" lon="43.9964517"><time>2026-07-24T15:52:53.443</time></trkpt><trkpt lat="56.2700767" lon="43.9963700"><time>2026-07-24T15:52:55.440</time></trkpt><trkpt lat="56.2700483" lon="43.9962767"><time>2026-07-24T15:52:58.437</time></trkpt><trkpt lat="56.2700317" lon="43.9961733"><time>2026-07-24T15:53:01.437</time></trkpt><trkpt lat="56.2700133" lon="43.9960583"><time>2026-07-24T15:53:04.467</time></trkpt><trkpt lat="56.2700200" lon="43.9962867"><time>2026-07-24T15:53:21.553</time></trkpt><trkpt lat="56.2703100" lon="43.9961700"><time>2026-07-24T15:53:49.460</time></trkpt><trkpt lat="56.2703133" lon="43.9957283"><time>2026-07-24T15:53:50.457</time></trkpt><trkpt lat="56.2694033" lon="43.9959167"><time>2026-07-24T15:54:42.560</time></trkpt><trkpt lat="56.2698350" lon="43.9945350"><time>2026-07-24T15:55:03.580</time></trkpt><trkpt lat="56.2695117" lon="43.9949650"><time>2026-07-24T15:55:20.597</time></trkpt><trkpt lat="56.2699067" lon="43.9965583"><time>2026-07-24T15:55:29.570</time></trkpt><trkpt lat="56.2701533" lon="43.9967117"><time>2026-07-24T15:55:32.353</time></trkpt><trkpt lat="56.2705117" lon="43.9938467"><time>2026-07-24T15:55:40.390</time></trkpt><trkpt lat="56.2701817" lon="43.9963317"><time>2026-07-24T15:55:45.250</time></trkpt><trkpt lat="56.2704233" lon="43.9943283"><time>2026-07-24T15:55:51.147</time></trkpt><trkpt lat="56.2704033" lon="43.9947517"><time>2026-07-24T15:55:52.120</time></trkpt><trkpt lat="56.2704217" lon="43.9948750"><time>2026-07-24T15:55:53.430</time></trkpt><trkpt lat="56.2703033" lon="43.9949683"><time>2026-07-24T15:55:54.460</time></trkpt><trkpt lat="56.2701417" lon="43.9965467"><time>2026-07-24T15:56:01.327</time></trkpt><trkpt lat="56.2703350" lon="43.9946833"><time>2026-07-24T15:56:06.217</time></trkpt><trkpt lat="56.2703617" lon="43.9945133"><time>2026-07-24T15:56:08.373</time></trkpt><trkpt lat="56.2703683" lon="43.9944183"><time>2026-07-24T15:56:10.433</time></trkpt><trkpt lat="56.2702617" lon="43.9944050"><time>2026-07-24T15:56:11.433</time></trkpt><trkpt lat="56.2701550" lon="43.9944683"><time>2026-07-24T15:56:12.423</time></trkpt><trkpt lat="56.2701300" lon="43.9945683"><time>2026-07-24T15:56:15.460</time></trkpt><trkpt lat="56.2699883" lon="43.9955667"><time>2026-07-24T15:56:32.440</time></trkpt><trkpt lat="56.2699883" lon="43.9955667"><time>2026-07-24T15:56:32.477</time></trkpt><trkpt lat="56.2699567" lon="43.9957017"><time>2026-07-24T15:56:33.420</time></trkpt><trkpt lat="56.2696500" lon="43.9961983"><time>2026-07-24T15:56:46.403</time></trkpt><trkpt lat="56.2695450" lon="43.9962917"><time>2026-07-24T15:56:47.357</time></trkpt><trkpt lat="56.2694850" lon="43.9962650"><time>2026-07-24T15:56:48.377</time></trkpt><trkpt lat="56.2693500" lon="43.9958483"><time>2026-07-24T15:56:49.390</time></trkpt><trkpt lat="56.2692983" lon="43.9957467"><time>2026-07-24T15:56:50.387</time></trkpt><trkpt lat="56.2692167" lon="43.9956350"><time>2026-07-24T15:56:53.407</time></trkpt><trkpt lat="56.2691683" lon="43.9955450"><time>2026-07-24T15:56:54.420</time></trkpt><trkpt lat="56.2691133" lon="43.9955250"><time>2026-07-24T15:56:55.380</time></trkpt><trkpt lat="56.2690583" lon="43.9954533"><time>2026-07-24T15:56:56.370</time></trkpt><trkpt lat="56.2690133" lon="43.9953533"><time>2026-07-24T15:56:59.407</time></trkpt><trkpt lat="56.2690050" lon="43.9952717"><time>2026-07-24T15:57:02.433</time></trkpt><trkpt lat="56.2690533" lon="43.9953000"><time>2026-07-24T15:57:04.433</time></trkpt><trkpt lat="56.2691133" lon="43.9953817"><time>2026-07-24T15:57:06.420</time></trkpt><trkpt lat="56.2692117" lon="43.9954050"><time>2026-07-24T15:57:12.423</time></trkpt><trkpt lat="56.2692683" lon="43.9954667"><time>2026-07-24T15:57:13.413</time></trkpt><trkpt lat="56.2693333" lon="43.9954750"><time>2026-07-24T15:57:15.380</time></trkpt><trkpt lat="56.2693083" lon="43.9953717"><time>2026-07-24T15:57:20.437</time></trkpt><trkpt lat="56.2692533" lon="43.9953567"><time>2026-07-24T15:57:23.437</time></trkpt><trkpt lat="56.2693167" lon="43.9954567"><time>2026-07-24T15:57:26.440</time></trkpt><trkpt lat="56.2693967" lon="43.9955067"><time>2026-07-24T15:57:27.440</time></trkpt><trkpt lat="56.2694467" lon="43.9955367"><time>2026-07-24T15:57:28.423</time></trkpt><trkpt lat="56.2695033" lon="43.9955317"><time>2026-07-24T15:57:30.440</time></trkpt><trkpt lat="56.2695833" lon="43.9955150"><time>2026-07-24T15:57:32.437</time></trkpt><trkpt lat="56.2696433" lon="43.9955567"><time>2026-07-24T15:57:33.437</time></trkpt><trkpt lat="56.2697000" lon="43.9956200"><time>2026-07-24T15:57:35.440</time></trkpt><trkpt lat="56.2697450" lon="43.9956517"><time>2026-07-24T15:57:37.493</time></trkpt><trkpt lat="56.2698083" lon="43.9957133"><time>2026-07-24T15:57:39.437</time></trkpt><trkpt lat="56.2698667" lon="43.9957533"><time>2026-07-24T15:57:41.437</time></trkpt><trkpt lat="56.2699500" lon="43.9958350"><time>2026-07-24T15:57:43.510</time></trkpt><trkpt lat="56.2700183" lon="43.9959083"><time>2026-07-24T15:57:44.440</time></trkpt><trkpt lat="56.2700850" lon="43.9959500"><time>2026-07-24T15:57:46.433</time></trkpt><trkpt lat="56.2701383" lon="43.9960000"><time>2026-07-24T15:57:49.500</time></trkpt><trkpt lat="56.2701950" lon="43.9960550"><time>2026-07-24T15:57:52.433</time></trkpt><trkpt lat="56.2702517" lon="43.9960917"><time>2026-07-24T15:57:54.437</time></trkpt><trkpt lat="56.2703000" lon="43.9961317"><time>2026-07-24T15:57:57.443</time></trkpt><trkpt lat="56.2703467" lon="43.9960317"><time>2026-07-24T15:57:59.440</time></trkpt><trkpt lat="56.2703967" lon="43.9959667"><time>2026-07-24T15:58:02.440</time></trkpt><trkpt lat="56.2704467" lon="43.9959750"><time>2026-07-24T15:58:06.443</time></trkpt><trkpt lat="56.2704917" lon="43.9959417"><time>2026-07-24T15:58:09.433</time></trkpt><trkpt lat="56.2705550" lon="43.9959317"><time>2026-07-24T15:58:12.443</time></trkpt><trkpt lat="56.2706033" lon="43.9959283"><time>2026-07-24T15:58:14.440</time></trkpt><trkpt lat="56.2706533" lon="43.9959117"><time>2026-07-24T15:58:16.430</time></trkpt><trkpt lat="56.2707050" lon="43.9957933"><time>2026-07-24T15:58:18.437</time></trkpt><trkpt lat="56.2707483" lon="43.9957333"><time>2026-07-24T15:58:19.520</time></trkpt><trkpt lat="56.2707883" lon="43.9956817"><time>2026-07-24T15:58:20.433</time></trkpt><trkpt lat="56.2708467" lon="43.9956217"><time>2026-07-24T15:58:22.463</time></trkpt><trkpt lat="56.2708583" lon="43.9957333"><time>2026-07-24T15:58:43.457</time></trkpt><trkpt lat="56.2710300" lon="43.9976233"><time>2026-07-24T15:59:05.520</time></trkpt><trkpt lat="56.2550400" lon="44.2218700"><time>2026-07-24T16:01:45.970</time></trkpt><trkpt lat="56.2586950" lon="44.1669800"><time>2026-07-24T16:01:46.913</time></trkpt><trkpt lat="56.2610617" lon="44.1413683"><time>2026-07-24T16:01:47.887</time></trkpt><trkpt lat="56.2632550" lon="44.1058300"><time>2026-07-24T16:01:48.890</time></trkpt><trkpt lat="56.2682550" lon="44.0410817"><time>2026-07-24T16:01:49.890</time></trkpt><trkpt lat="56.2687683" lon="44.0359417"><time>2026-07-24T16:01:50.890</time></trkpt><trkpt lat="56.2673817" lon="43.9967767"><time>2026-07-24T16:01:52.383</time></trkpt><trkpt lat="56.2679317" lon="43.9956033"><time>2026-07-24T16:01:53.407</time></trkpt><trkpt lat="56.2687033" lon="43.9948600"><time>2026-07-24T16:01:54.413</time></trkpt><trkpt lat="56.2671050" lon="43.9945900"><time>2026-07-24T16:01:55.423</time></trkpt><trkpt lat="56.2707833" lon="43.9927167"><time>2026-07-24T16:01:56.440</time></trkpt><trkpt lat="56.2711533" lon="43.9908667"><time>2026-07-24T16:02:03.377</time></trkpt><trkpt lat="56.2710350" lon="43.9927117"><time>2026-07-24T16:02:12.313</time></trkpt><trkpt lat="56.2708850" lon="43.9948267"><time>2026-07-24T16:02:27.210</time></trkpt><trkpt lat="56.2711600" lon="43.9948917"><time>2026-07-24T16:02:28.170</time></trkpt><trkpt lat="56.2714050" lon="43.9953567"><time>2026-07-24T16:02:29.427</time></trkpt><trkpt lat="56.2714417" lon="43.9955117"><time>2026-07-24T16:02:30.420</time></trkpt><trkpt lat="56.2713617" lon="43.9957300"><time>2026-07-24T16:02:31.423</time></trkpt><trkpt lat="56.2713300" lon="43.9970883"><time>2026-07-24T16:02:32.437</time></trkpt><trkpt lat="56.2723350" lon="43.9931050"><time>2026-07-24T16:06:31.210</time></trkpt><trkpt lat="56.2723517" lon="43.9930667"><time>2026-07-24T16:06:33.087</time></trkpt><trkpt lat="56.2724033" lon="43.9931217"><time>2026-07-24T16:06:33.560</time></trkpt><trkpt lat="56.2722567" lon="43.9934567"><time>2026-07-24T16:06:37.433</time></trkpt><trkpt lat="56.2723133" lon="43.9934217"><time>2026-07-24T16:06:40.430</time></trkpt><trkpt lat="56.2722933" lon="43.9933433"><time>2026-07-24T16:06:47.417</time></trkpt></trkseg></trk></gpx>